Poreč, Hrvaška

09:57 AM CET on oktober 31, 2014 (GMT +0100)
Nova Vas Porečka | Change Station
CLOSE
Current Station
Osebne vremenske postaje
Location: Nova Vas, ISTRIA COUNTY
Višina: 436 ft
Nearby Weather Stations

Viš 436 ft 45.26 °N, 13.66 °E | Updated 2 seconds ago

Clear
Jasno
61.9 °F
Feels Like 61.9 °F
N
0.0
Veter Spremenljivo Veter od JJV
Gusts 0.0 mph

Danes
High -- | Low -- °F
--% Chance of Precip.
Yesterday
High -- | Low -- °F
Precip. -- v
6:42 AM 4:55 PM
Prvo četrtletje, 53% visible
Zračni tlak 30.30 v
Vidljivost -9999.0 milje
Oblaki
Rosišče 46 °F
Vlažnost 56%
Padavine 0.00 v
Snow Depth Not available.
UV 3.0 out of 12
Pollen Not available.
Air Quality Not available.
Flu Activity Not available.
METAR LJPZ 310830Z 00000KT CAVOK 14/07 Q1026

More Conditions Fewer Conditions

Zračni tlak 30.30 v
Vidljivost -9999.0 milje
Oblaki
Rosišče 46 °F
Vlažnost 56%
Padavine 0.00 v
Snow Depth Not available.
UV 3.0 out of 12
Pollen Not available.
Air Quality Not available.
Flu Activity Not available.
METAR LJPZ 310830Z 00000KT CAVOK 14/07 Q1026

More Conditions Fewer Conditions

10-Day Weather Forecast

Almanac

Astronomija

Oct. 31, 2014 Rise Set
Actual Time
Civil Twilight
Nautical Twilight
Astronomical Twilight
Moon
Length Of Visible Light
Dolžina dneva
Tomorrow will be .
, % of the Moon is Illuminated

Današnji ekstremi

Country Highs Country Lows

Community

WunderPhotos

Upload Photos

1,766,573 photos uploaded!

WunderBlogs® & News

Nearby

Air Quality

  Air Quality AQ Index Pollutant
Not available.

Snow Depth

Station Depth Višina

Earthquake Activity

City Distance Mag. Time & Date
Minimum magnitude displayed is 2.5.

Coastal Water Temperatures

Mesto Temperatura

Nearby Weather Stations